ADDS METAR Data INFO
IDs: Format: Raw Decoded Include TAF

Data at: 1310 UTC 19 Jul 2018

KOZS 191255Z AUTO 14008KT 4SM BR BKN003 22/21 A2993 RMK AO2
KOZS 191235Z AUTO 14008KT 5SM BR BKN003 22/21 A2994 RMK AO2
KOZS 191215Z AUTO 13006KT 5SM BR BKN003 21/21 A2994 RMK AO2
KOZS 191155Z AUTO 13006KT 5SM BR SCT003 21/21 A2994 RMK AO2
KOZS 191135Z AUTO 12005KT 5SM BR SCT003 21/21 A2994 RMK AO2
KOZS 191115Z AUTO 12005KT 7SM CLR 21/21 A2994 RMK AO2
KOZS 191055Z AUTO 13006KT 7SM CLR 21/21 A2993 RMK AO2
KOZS 191035Z AUTO 13006KT 7SM SCT003 21/21 A2993 RMK AO2
KOZS 191015Z AUTO 13008KT 7SM SCT003 21/21 A2993 RMK AO2
KOZS 190955Z AUTO 14006KT 7SM CLR 21/21 A2993 RMK AO2
KOZS 190935Z AUTO 13005KT 7SM SCT044 21/21 A2993 RMK AO2
KOZS 190915Z AUTO 13004KT 7SM BKN044 21/21 A2994 RMK AO2
KOZS 190855Z AUTO 11005KT 7SM CLR 21/21 A2994 RMK AO2
KOZS 190835Z AUTO 11004KT 10SM CLR 21/21 A2994 RMK AO2
KOZS 190815Z AUTO 12005KT 10SM SCT047 SCT050 22/21 A2994 RMK AO2
KOZS 190755Z AUTO 11006KT 10SM BKN028 OVC047 22/21 A2994 RMK AO2
KOZS 190735Z AUTO 11006KT 10SM BKN028 OVC050 22/21 A2995 RMK AO2
KOZS 190715Z AUTO 11005KT 10SM BKN049 BKN060 OVC090 22/21 A2995 RMK AO2
KOZS 190655Z AUTO 10006KT 10SM BKN047 BKN060 OVC090 22/21 A2996 RMK AO2
KOZS 190635Z AUTO 12005KT 10SM OVC047 22/21 A2997 RMK AO2
KOZS 190615Z AUTO 11006KT 10SM OVC047 22/21 A2997 RMK AO2
KOZS 190555Z AUTO 10004KT 10SM BKN049 22/21 A2997 RMK AO2
KOZS 190535Z AUTO 10005KT 7SM BKN049 BKN110 22/21 A2997 RMK AO2
KOZS 190515Z AUTO 10004KT 10SM SCT100 BKN120 22/21 A2997 RMK AO2
KOZS 190455Z AUTO 10004KT 10SM BKN100 OVC110 22/21 A2997 RMK AO2
KOZS 190435Z AUTO 12005KT 10SM OVC100 22/21 A2997 RMK AO2
KOZS 190415Z AUTO 12004KT 10SM BKN110 22/21 A2997 RMK AO2
KOZS 190355Z AUTO 13004KT 10SM SCT110 22/21 A2997 RMK AO2
KOZS 190335Z AUTO 14004KT 7SM BKN100 22/22 A2997 RMK AO2
KOZS 190315Z AUTO 12004KT 7SM BKN100 22/22 A2997 RMK AO2
KOZS 190255Z AUTO 11005KT 10SM SCT050 22/21 A2997 RMK AO2
KOZS 190235Z AUTO 10005KT 10SM SCT026 BKN048 BKN060 22/21 A2996 RMK AO2
KOZS 190215Z AUTO 11006KT 10SM BKN044 OVC050 22/21 A2996 RMK AO2 LTG DSNT SE
KOZS 190155Z AUTO 11008KT 10SM SCT037 BKN045 OVC065 22/21 A2996 RMK AO2 LTG DSNT SE
KOZS 190135Z AUTO 10005KT 10SM VCTS SCT050 OVC065 23/22 A2996 RMK AO2 LTG DSNT SE
KOZS 190115Z AUTO 10006KT 10SM SCT004 SCT022 BKN055 23/22 A2995 RMK AO2 LTG DSNT E AND SE
KOZS 190055Z AUTO 12007KT 7SM -TSRA SCT004 BKN027 OVC070 23/22 A2995 RMK AO2 LTG DSNT E AND SE P0001
KOZS 190035Z AUTO 13007KT 10SM RA SCT015 SCT020 OVC030 24/22 A2996 RMK AO2 LTG DSNT S
KOZS 190015Z AUTO 17007KT 10SM RA BKN030 BKN035 BKN042 26/22 A2995 RMK AO2 LTG DSNT SE THRU W
KOZS 182355Z AUTO 08006KT 10SM VCTS SCT040 SCT075 SCT085 27/21 A2995 RMK AO2 LTG DSNT SE THRU W
KOZS 182335Z AUTO 07006KT 10SM SCT026 SCT075 BKN095 27/22 A2995 RMK AO2 LTG DSNT SE THRU SW
KOZS 182315Z AUTO 06005KT 10SM SCT020 SCT027 SCT095 27/22 A2995 RMK AO2 LTG DSNT S
KOZS 182255Z AUTO 07006KT 10SM SCT020 SCT080 28/22 A2995 RMK AO2 LTG DSNT S
KOZS 182235Z AUTO 07005KT 10SM SCT019 SCT080 27/22 A2995 RMK AO2
KOZS 182215Z AUTO 06005KT 10SM SCT019 BKN080 27/22 A2996 RMK AO2
KOZS 182155Z AUTO 05006KT 10SM SCT017 28/22 A2996 RMK AO2
KOZS 182135Z AUTO 06006KT 10SM SCT017 28/22 A2996 RMK AO2
KOZS 182115Z AUTO 09006KT 10SM BKN017 28/22 A2997 RMK AO2 LTG DSNT SE
KOZS 182055Z AUTO 08005KT 10SM BKN017 27/22 A2997 RMK AO2 LTG DSNT SE
KOZS 182035Z AUTO 07005KT 10SM SCT015 27/22 A2998 RMK AO2
KOZS 182015Z AUTO 10009KT 10SM SCT015 27/22 A2999 RMK AO2
KOZS 181955Z AUTO 09009KT 10SM SCT055 27/22 A2999 RMK AO2
KOZS 181935Z AUTO 09008KT 10SM SCT012 SCT055 26/22 A3001 RMK AO2
KOZS 181915Z AUTO 11011G15KT 10SM BKN010 BKN055 25/21 A3002 RMK AO2
KOZS 181855Z AUTO 09012G15KT 10SM SCT010 BKN055 BKN075 25/21 A3002 RMK AO2
KOZS 181835Z AUTO 09007KT 050V120 10SM SCT004 SCT008 BKN012 24/22 A3003 RMK AO2
KOZS 181815Z AUTO 07005KT 10SM BKN004 OVC011 23/21 A3004 RMK AO2
KOZS 181755Z AUTO 06005KT 10SM BKN004 OVC011 22/21 A3005 RMK AO2 P0019
KOZS 181735Z AUTO 06007KT 10SM SCT002 BKN006 OVC011 21/21 A3005 RMK AO2 P0019
KOZS 181715Z AUTO 03004KT 2SM +RA OVC004 21/20 A3006 RMK AO2 LTG DSNT SE P0019
KOZS 181655Z AUTO 00000KT 1SM +RA BKN009 OVC015 21/21 A3006 RMK AO2 P0057
KOZS 181635Z AUTO 00000KT 3SM +RA BKN004 BKN012 OVC018 21/20 A3006 RMK AO2 P0029
KOZS 181615Z AUTO 31005KT 7SM +RA OVC006 21/20 A3007 RMK AO2 P0004
KOZS 181555Z AUTO 00000KT 10SM RA OVC008 21/20 A3006 RMK AO2 LTG DSNT NW THRU NE P0014
KOZS 181535Z AUTO 05003KT 10SM -TSRA OVC006 21/20 A3005 RMK AO2 LTG DSNT E AND NW P0013
KOZS 181515Z AUTO 36006KT 4SM -TSRA OVC006 21/20 A3005 RMK AO2 LTG DSNT E SE AND W P0013
KOZS 181455Z AUTO 36003KT 7SM TSRA BKN008 BKN024 OVC030 21/20 A3005 RMK AO2 LTG DSNT SW THRU NW P0014
KOZS 181435Z AUTO 09006KT 10SM -TSRA SCT006 BKN028 OVC055 21/20 A3006 RMK AO2 LTG DSNT E W AND NW P0011
KOZS 181415Z AUTO 08009KT 5SM RA SCT007 BKN029 OVC065 21/20 A3005 RMK AO2 LTG DSNT ALQS P0008
KOZS 181355Z AUTO 10007KT 2SM +TSRA SCT011 BKN022 OVC027 21/20 A3006 RMK AO2 LTG DSNT ALQS P0047
KOZS 181335Z AUTO 24008KT 5SM TSRA SCT011 BKN050 OVC065 21/20 A3009 RMK AO2 LTG DSNT ALQS P0013
KOZS 181315Z AUTO 07006KT 7SM +TSRA SCT036 BKN050 OVC065 21/20 A3005 RMK AO2 LTG DSNT ALQS P0007
KOZS 181255Z AUTO 05006KT 5SM +TSRA SCT037 SCT046 OVC055 21/20 A3006 RMK AO2 LTG DSNT W P0058
KOZS 181235Z AUTO 06006KT 4SM +RA SCT016 BKN032 OVC048 21/20 A3006 RMK AO2 LTG DSNT E AND W P0050
KOZS 181215Z AUTO 06005KT 2SM +VCTSRA BKN016 OVC028 22/20 A3006 RMK AO2 VIS 1V5 P0026
KOZS 181155Z AUTO 35003KT 4SM VCTSRA BKN028 BKN041 OVC047 22/21 A3005 RMK AO2 LTG DSNT W THRU N P0021
KOZS 181135Z AUTO 02003KT 7SM +RA BKN045 OVC060 23/20 A3004 RMK AO2 LTG DSNT N AND W P0002
KOZS 181115Z AUTO 09003KT 10SM BKN060 BKN070 OVC095 23/20 A3004 RMK AO2 LTG DSNT N AND W
KOZS 181055Z AUTO 10004KT 10SM BKN060 BKN095 OVC120 23/20 A3003 RMK AO2 LTG DSNT W AND NW
KOZS 181035Z AUTO 10005KT 10SM VCTS SCT060 BKN095 BKN120 23/20 A3003 RMK AO2 LTG DSNT W AND NW
KOZS 181015Z AUTO 10006KT 10SM OVC095 23/20 A3003 RMK AO2 LTG DSNT NW
KOZS 180955Z AUTO 10005KT 10SM VCTS SCT050 OVC095 23/20 A3003 RMK AO2
KOZS 180935Z AUTO 11005KT 10SM SCT049 SCT060 OVC095 24/20 A3003 RMK AO2
KOZS 180915Z AUTO 11004KT 10SM SCT044 SCT060 BKN095 24/20 A3004 RMK AO2
KOZS 180855Z AUTO 11005KT 10SM BKN110 23/20 A3004 RMK AO2 LTG DSNT W
KOZS 180835Z AUTO 10005KT 10SM OVC110 23/20 A3004 RMK AO2
KOZS 180815Z AUTO 10004KT 10SM BKN110 23/20 A3004 RMK AO2
KOZS 180755Z AUTO 09003KT 10SM SCT120 23/20 A3004 RMK AO2
KOZS 180735Z AUTO 07003KT 10SM SCT120 23/20 A3004 RMK AO2
KOZS 180715Z AUTO 06003KT 10SM SCT036 SCT042 24/20 A3004 RMK AO2 LTG DSNT W
KOZS 180655Z AUTO 06004KT 10SM BKN036 BKN042 BKN048 24/20 A3005 RMK AO2
KOZS 180635Z AUTO 06003KT 10SM SCT030 SCT037 SCT043 25/20 A3005 RMK AO2
KOZS 180615Z AUTO 04003KT 10SM SCT030 SCT120 25/20 A3005 RMK AO2
KOZS 180555Z AUTO 00000KT 10SM BKN120 25/19 A3005 RMK AO2
KOZS 180535Z AUTO 08004KT 10SM OVC120 25/19 A3005 RMK AO2
KOZS 180515Z AUTO 06003KT 10SM BKN120 25/19 A3005 RMK AO2
KOZS 180455Z AUTO 04003KT 10SM BKN120 25/19 A3005 RMK AO2
KOZS 180435Z AUTO 00000KT 10SM OVC120 25/19 A3005 RMK AO2
KOZS 180415Z AUTO 00000KT 10SM OVC120 25/19 A3005 RMK AO2
KOZS 180355Z AUTO 00000KT 10SM OVC120 25/19 A3005 RMK AO2
KOZS 180335Z AUTO 00000KT 10SM OVC110 25/19 A3006 RMK AO2
KOZS 180315Z AUTO 05003KT 10SM OVC110 25/19 A3005 RMK AO2
KOZS 180255Z AUTO 00000KT 10SM OVC110 25/19 A3005 RMK AO2
KOZS 180235Z AUTO 07003KT 10SM SCT039 SCT050 BKN120 26/19 A3004 RMK AO2
KOZS 180215Z AUTO 08004KT 10SM SCT039 SCT120 26/19 A3004 RMK AO2
KOZS 180155Z AUTO 07003KT 10SM BKN120 26/19 A3004 RMK AO2
KOZS 180135Z AUTO 07004KT 10SM SCT120 26/20 A3003 RMK AO2
KOZS 180115Z AUTO 04004KT 10SM BKN120 27/20 A3004 RMK AO2